createdAt,value
2022-10-08T00:02:02.639Z,95.70
2022-10-08T00:04:33.208Z,97.30
2022-10-08T00:07:01.519Z,99.90
2022-10-08T00:09:29.604Z,99.90
2022-10-08T00:11:57.729Z,99.90
2022-10-08T00:14:26.138Z,99.90
2022-10-08T00:16:54.341Z,99.90
2022-10-08T00:19:22.312Z,99.90
2022-10-08T00:21:57.592Z,99.90
2022-10-08T00:24:26.812Z,99.90
2022-10-08T00:26:55.029Z,99.90
2022-10-08T00:29:23.486Z,99.90
2022-10-08T00:31:52.617Z,99.90
2022-10-08T00:34:23.428Z,99.90
2022-10-08T00:36:55.844Z,99.90
2022-10-08T00:39:26.469Z,99.90
2022-10-08T00:41:57.755Z,99.90
2022-10-08T00:44:54.248Z,99.90
2022-10-08T00:47:41.062Z,99.90
2022-10-08T00:50:15.535Z,99.90
2022-10-08T00:52:50.755Z,99.90
2022-10-08T00:55:23.625Z,99.90
2022-10-08T00:57:52.849Z,99.90
2022-10-08T01:00:24.897Z,99.90
2022-10-08T01:02:54.002Z,99.90
2022-10-08T01:05:34.400Z,99.90
2022-10-08T01:08:17.100Z,99.90
2022-10-08T01:10:57.763Z,99.90
2022-10-08T01:13:42.430Z,99.90
2022-10-08T01:16:28.877Z,99.90
2022-10-08T01:19:14.759Z,99.90
2022-10-08T01:21:59.942Z,99.90
2022-10-08T01:25:03.086Z,99.90
2022-10-08T01:27:41.345Z,99.90
2022-10-08T01:30:16.299Z,99.90
2022-10-08T01:32:57.541Z,99.90
2022-10-08T01:35:33.193Z,99.90
2022-10-08T01:38:07.089Z,99.90
2022-10-08T01:40:40.114Z,99.90
2022-10-08T01:43:15.884Z,99.90
2022-10-08T01:45:51.437Z,99.90
2022-10-08T01:48:27.171Z,99.90
2022-10-08T01:51:03.103Z,99.90
2022-10-08T01:53:40.331Z,99.90
2022-10-08T01:56:14.554Z,99.90
2022-10-08T01:58:53.013Z,99.90
2022-10-08T02:01:33.079Z,99.90
2022-10-08T02:04:18.825Z,99.90
2022-10-08T02:06:55.650Z,99.90
2022-10-08T02:09:27.110Z,99.90
2022-10-08T02:11:55.453Z,99.90
2022-10-08T02:14:28.548Z,99.90
2022-10-08T02:17:07.319Z,99.90
2022-10-08T02:19:50.204Z,99.90
2022-10-08T02:22:25.445Z,99.90
2022-10-08T02:25:05.233Z,99.90
2022-10-08T02:27:50.756Z,99.90
2022-10-08T02:30:21.489Z,99.90
2022-10-08T02:32:59.085Z,99.90
2022-10-08T02:35:34.553Z,99.90
2022-10-08T02:38:11.227Z,99.90
2022-10-08T02:40:45.871Z,99.90
2022-10-08T02:43:22.131Z,99.90
2022-10-08T02:46:00.321Z,99.90
2022-10-08T02:48:34.137Z,99.90
2022-10-08T02:51:08.106Z,99.90
2022-10-08T02:53:40.344Z,99.90
2022-10-08T02:56:19.904Z,99.90
2022-10-08T02:58:49.063Z,99.90
2022-10-08T03:01:26.891Z,99.90
2022-10-08T03:04:01.563Z,99.90
2022-10-08T03:06:31.447Z,99.90
2022-10-08T03:09:02.345Z,99.90
2022-10-08T03:11:32.507Z,99.90
2022-10-08T03:14:05.808Z,99.90
2022-10-08T03:16:40.013Z,99.90
2022-10-08T03:19:12.213Z,99.90
2022-10-08T03:21:42.920Z,99.90
2022-10-08T03:24:13.095Z,99.90
2022-10-08T03:26:42.199Z,99.90
2022-10-08T03:29:10.788Z,99.90
2022-10-08T03:31:40.541Z,99.90
2022-10-08T03:34:08.562Z,99.90
2022-10-08T03:36:36.666Z,99.90
2022-10-08T03:39:04.880Z,99.90
2022-10-08T03:41:33.493Z,99.90
2022-10-08T03:44:01.693Z,99.90
2022-10-08T03:46:29.755Z,99.90
2022-10-08T03:48:59.216Z,99.90
2022-10-08T03:51:27.580Z,99.90
2022-10-08T03:53:55.714Z,99.90
2022-10-08T03:56:25.203Z,99.90
2022-10-08T03:58:55.885Z,99.90
2022-10-08T04:01:24.605Z,99.90
2022-10-08T04:03:53.334Z,99.90
2022-10-08T04:06:23.109Z,99.90
2022-10-08T04:08:51.219Z,99.90
2022-10-08T04:11:20.297Z,99.90
2022-10-08T04:13:48.633Z,99.90
2022-10-08T04:16:19.481Z,99.90
2022-10-08T04:18:49.073Z,99.90
2022-10-08T04:21:20.185Z,99.90
2022-10-08T04:23:50.700Z,99.90
2022-10-08T04:26:19.294Z,99.90
2022-10-08T04:28:48.146Z,99.90
2022-10-08T04:31:19.271Z,99.90
2022-10-08T04:33:48.726Z,99.90
2022-10-08T04:36:19.232Z,99.90
2022-10-08T04:38:49.805Z,99.90
2022-10-08T04:41:20.452Z,99.90
2022-10-08T04:43:48.736Z,99.90
2022-10-08T04:46:20.253Z,99.90
2022-10-08T04:48:50.618Z,99.90
2022-10-08T04:51:23.212Z,99.90
2022-10-08T04:53:54.521Z,99.90
2022-10-08T04:56:26.951Z,99.90
2022-10-08T04:58:56.517Z,99.90
2022-10-08T05:01:27.130Z,99.90
2022-10-08T05:03:57.670Z,99.90
2022-10-08T05:06:29.241Z,99.90
2022-10-08T05:09:02.856Z,99.90
2022-10-08T05:11:32.035Z,99.90
2022-10-08T05:14:01.494Z,99.90
2022-10-08T05:16:30.126Z,99.90
2022-10-08T05:18:59.290Z,99.90
2022-10-08T05:21:30.829Z,99.90
2022-10-08T05:24:03.149Z,99.90
2022-10-08T05:26:57.616Z,99.90
2022-10-08T05:29:22.547Z,99.90
2022-10-08T05:31:50.907Z,99.90
2022-10-08T05:34:19.060Z,99.90
2022-10-08T05:36:47.351Z,99.90
2022-10-08T05:39:17.015Z,99.90
2022-10-08T05:41:45.202Z,99.90
2022-10-08T05:44:14.127Z,99.90
2022-10-08T05:46:42.659Z,99.90
2022-10-08T05:49:19.874Z,99.90
2022-10-08T05:51:48.645Z,99.90
2022-10-08T05:54:18.866Z,99.90
2022-10-08T05:56:47.428Z,99.90
2022-10-08T05:59:21.851Z,99.90
2022-10-08T06:01:51.048Z,99.90
2022-10-08T06:04:19.899Z,99.90
2022-10-08T06:06:49.006Z,99.90
2022-10-08T06:09:21.978Z,99.90
2022-10-08T06:11:51.171Z,99.90
2022-10-08T06:14:20.534Z,99.90
2022-10-08T06:16:49.459Z,99.90
2022-10-08T06:19:18.490Z,99.90
2022-10-08T06:21:46.792Z,99.90
2022-10-08T06:24:15.597Z,99.90
2022-10-08T06:26:45.996Z,99.90
2022-10-08T06:29:18.720Z,99.90
2022-10-08T06:31:47.449Z,99.90
2022-10-08T06:34:16.188Z,99.90
2022-10-08T06:36:44.260Z,99.90
2022-10-08T06:39:15.686Z,99.90
2022-10-08T06:41:45.441Z,99.90
2022-10-08T06:44:19.160Z,99.90
2022-10-08T06:46:47.400Z,99.90
2022-10-08T06:49:15.626Z,99.90
2022-10-08T06:51:43.693Z,99.90
2022-10-08T06:54:12.118Z,99.90
2022-10-08T06:56:40.720Z,99.90
2022-10-08T06:59:11.001Z,99.90
2022-10-08T07:01:40.154Z,99.90
2022-10-08T07:04:08.548Z,99.90
2022-10-08T07:06:37.140Z,99.90
2022-10-08T07:09:07.779Z,99.90
2022-10-08T07:11:36.003Z,99.90
2022-10-08T07:14:05.058Z,99.90
2022-10-08T07:16:34.890Z,99.90
2022-10-08T07:19:03.582Z,99.90
2022-10-08T07:21:32.127Z,99.90
2022-10-08T07:24:01.900Z,99.90
2022-10-08T07:26:34.454Z,99.90
2022-10-08T07:29:08.246Z,99.90
2022-10-08T07:31:39.830Z,99.90
2022-10-08T07:34:12.351Z,99.90
2022-10-08T07:36:41.571Z,99.90
2022-10-08T07:39:14.391Z,99.90
2022-10-08T07:41:43.671Z,99.90
2022-10-08T07:44:15.788Z,99.90
2022-10-08T07:46:47.767Z,99.90
2022-10-08T07:49:17.618Z,99.90
2022-10-08T07:51:46.754Z,99.90
2022-10-08T07:54:19.106Z,99.90
2022-10-08T07:56:48.088Z,99.90
2022-10-08T07:59:16.718Z,99.90
2022-10-08T08:01:46.601Z,99.90
2022-10-08T08:04:15.913Z,99.90
2022-10-08T08:06:48.564Z,99.90
2022-10-08T08:09:18.294Z,99.90
2022-10-08T08:11:47.035Z,97.80
2022-10-08T08:14:19.738Z,45.30
2022-10-08T08:16:49.434Z,45.90
2022-10-08T08:19:17.910Z,1.00
2022-10-08T08:21:45.970Z,1.00
2022-10-08T08:24:16.486Z,1.00
2022-10-08T08:26:45.569Z,1.00
2022-10-08T08:29:16.872Z,1.00
2022-10-08T08:31:48.525Z,1.00
2022-10-08T08:34:20.264Z,1.00
2022-10-08T08:36:51.452Z,1.00
2022-10-08T08:39:22.747Z,1.00
2022-10-08T08:42:23.319Z,1.00
2022-10-08T08:44:59.840Z,1.00
2022-10-08T08:47:37.482Z,99.90
2022-10-08T08:50:20.426Z,1.00
2022-10-08T08:52:49.379Z,1.00
2022-10-08T08:55:22.726Z,99.90
2022-10-08T08:58:02.594Z,1.00
2022-10-08T09:00:38.567Z,1.00
2022-10-08T09:03:22.181Z,1.00
2022-10-08T09:05:56.756Z,99.90
2022-10-08T09:08:33.319Z,1.00
2022-10-08T09:11:04.447Z,1.00
2022-10-08T09:13:39.758Z,99.90
2022-10-08T09:16:10.998Z,99.90
2022-10-08T09:18:48.438Z,1.00
2022-10-08T09:21:17.810Z,1.00
2022-10-08T09:23:48.905Z,1.00
2022-10-08T09:26:21.245Z,99.90
2022-10-08T09:28:53.488Z,1.00
2022-10-08T09:31:27.840Z,1.00
2022-10-08T09:34:04.649Z,99.90
2022-10-08T09:36:43.008Z,99.90
2022-10-08T09:39:21.196Z,99.90
2022-10-08T09:42:14.625Z,99.90
2022-10-08T09:44:44.970Z,99.90
2022-10-08T09:47:15.928Z,99.90
2022-10-08T09:49:49.933Z,99.90
2022-10-08T09:52:25.885Z,99.90
2022-10-08T09:55:00.203Z,99.90
2022-10-08T09:57:30.690Z,99.90
2022-10-08T10:00:02.191Z,99.90
2022-10-08T10:02:35.796Z,99.90
2022-10-08T10:05:17.687Z,5.80
2022-10-08T10:07:47.266Z,28.90
2022-10-08T10:10:23.540Z,1.00
2022-10-08T10:12:59.215Z,9.40
2022-10-08T10:15:34.396Z,1.00
2022-10-08T10:18:11.029Z,1.00
2022-10-08T10:20:47.252Z,1.00
2022-10-08T10:23:21.193Z,1.00
2022-10-08T10:25:57.551Z,1.00
2022-10-08T10:28:45.376Z,1.00
2022-10-08T10:31:20.563Z,1.00
2022-10-08T10:33:58.146Z,1.00
2022-10-08T10:36:35.281Z,1.00
2022-10-08T10:39:20.335Z,1.00
2022-10-08T10:41:59.117Z,1.00
2022-10-08T10:44:36.234Z,1.00
2022-10-08T10:47:06.313Z,1.00
2022-10-08T10:49:38.946Z,1.00
2022-10-08T10:52:33.852Z,1.00
2022-10-08T10:55:24.049Z,1.00
2022-10-08T10:58:14.887Z,1.00
2022-10-08T11:00:58.367Z,1.00
2022-10-08T11:03:41.417Z,1.00
2022-10-08T11:06:40.955Z,1.00
2022-10-08T11:09:22.426Z,1.00
2022-10-08T11:11:55.991Z,1.00
2022-10-08T11:14:48.034Z,1.00
2022-10-08T11:17:36.130Z,1.00
2022-10-08T11:20:33.824Z,1.00
2022-10-08T11:23:13.099Z,99.90
2022-10-08T11:26:16.481Z,1.00
2022-10-08T11:28:56.295Z,1.00
2022-10-08T11:31:38.525Z,1.00
2022-10-08T11:34:22.374Z,1.00
2022-10-08T11:37:07.803Z,99.90
2022-10-08T11:39:50.890Z,99.90
2022-10-08T11:42:37.900Z,99.90
2022-10-08T11:45:16.763Z,1.00
2022-10-08T11:47:53.657Z,99.90
2022-10-08T11:50:33.070Z,99.90
2022-10-08T11:53:18.901Z,1.00
2022-10-08T11:55:55.510Z,99.90
2022-10-08T11:58:31.209Z,99.90
2022-10-08T12:01:07.232Z,99.90
2022-10-08T12:03:38.455Z,1.00
2022-10-08T12:06:20.254Z,1.00
2022-10-08T12:09:08.632Z,1.00
2022-10-08T12:11:54.175Z,1.00
2022-10-08T12:14:49.240Z,1.00
2022-10-08T12:17:18.510Z,1.00
2022-10-08T12:20:05.876Z,1.00
2022-10-08T12:23:02.651Z,1.00
2022-10-08T12:25:38.958Z,1.00
2022-10-08T12:28:45.997Z,1.00
2022-10-08T12:31:28.948Z,1.00
2022-10-08T12:34:01.309Z,99.90
2022-10-08T12:36:42.373Z,1.00
2022-10-08T12:39:23.094Z,99.90
2022-10-08T12:42:05.039Z,99.90
2022-10-08T12:44:49.630Z,1.00
2022-10-08T12:47:35.622Z,1.00
2022-10-08T12:50:25.573Z,46.50
2022-10-08T12:52:54.285Z,98.20
2022-10-08T12:55:24.729Z,99.90
2022-10-08T12:57:54.359Z,99.90
2022-10-08T13:00:26.058Z,99.90
2022-10-08T13:03:05.883Z,99.90
2022-10-08T13:05:38.565Z,99.90
2022-10-08T13:08:29.495Z,99.90
2022-10-08T13:10:58.562Z,99.90
2022-10-08T13:13:44.171Z,99.90
2022-10-08T13:16:15.844Z,99.90
2022-10-08T13:18:48.182Z,99.90
2022-10-08T13:21:37.223Z,99.90
2022-10-08T13:24:32.303Z,99.90
2022-10-08T13:27:00.459Z,99.90
2022-10-08T13:29:33.837Z,99.90
2022-10-08T13:32:06.895Z,99.90
2022-10-08T13:34:44.369Z,99.90
2022-10-08T13:37:16.933Z,99.90
2022-10-08T13:39:53.917Z,99.90
2022-10-08T13:42:26.735Z,99.90
2022-10-08T13:44:55.047Z,99.90
2022-10-08T13:47:24.034Z,99.90
2022-10-08T13:49:55.605Z,99.90
2022-10-08T13:52:25.902Z,99.90
2022-10-08T13:55:00.075Z,99.90
2022-10-08T13:57:28.472Z,99.90
2022-10-08T13:59:56.670Z,99.90
2022-10-08T14:02:25.087Z,99.90
2022-10-08T14:04:54.970Z,99.90
2022-10-08T14:07:29.143Z,99.90
2022-10-08T14:10:01.290Z,99.90
2022-10-08T14:12:36.686Z,94.20
2022-10-08T14:15:05.726Z,94.10
2022-10-08T14:17:33.771Z,91.10
2022-10-08T14:20:03.189Z,52.10
2022-10-08T14:22:38.578Z,51.70
2022-10-08T14:25:14.874Z,34.80
2022-10-08T14:27:43.036Z,33.60
2022-10-08T14:30:14.504Z,46.80
2022-10-08T14:32:43.191Z,51.70
2022-10-08T14:35:13.885Z,28.90
2022-10-08T14:37:42.195Z,22.10
2022-10-08T14:40:16.885Z,1.00
2022-10-08T14:42:45.632Z,1.00
2022-10-08T14:45:14.122Z,1.00
2022-10-08T14:47:42.220Z,1.00
2022-10-08T14:50:13.480Z,1.00
2022-10-08T14:52:44.643Z,1.00
2022-10-08T14:55:13.298Z,1.00
2022-10-08T14:57:41.631Z,1.00
2022-10-08T15:00:11.181Z,1.00
2022-10-08T15:02:39.184Z,46.80
2022-10-08T15:05:09.302Z,99.90
2022-10-08T15:07:38.721Z,99.90
2022-10-08T15:10:08.076Z,99.90
2022-10-08T15:12:36.119Z,99.90
2022-10-08T15:15:04.716Z,99.90
2022-10-08T15:17:32.829Z,99.90
2022-10-08T15:20:01.456Z,99.90
2022-10-08T15:22:29.566Z,99.90
2022-10-08T15:24:58.964Z,99.90
2022-10-08T15:27:27.019Z,99.90
2022-10-08T15:29:55.035Z,51.70
2022-10-08T15:32:28.276Z,1.00
2022-10-08T15:34:58.447Z,1.00
2022-10-08T15:37:26.485Z,1.00
2022-10-08T15:39:54.646Z,1.00
2022-10-08T15:42:25.314Z,1.00
2022-10-08T15:44:53.683Z,1.00
2022-10-08T15:47:21.811Z,1.00
2022-10-08T15:49:49.879Z,1.00
2022-10-08T15:52:21.353Z,1.00
2022-10-08T15:54:49.573Z,1.00
2022-10-08T15:57:19.510Z,99.90
2022-10-08T15:59:49.197Z,99.90
2022-10-08T16:02:18.541Z,99.90
2022-10-08T16:04:48.075Z,99.90
2022-10-08T16:07:16.632Z,1.00
2022-10-08T16:09:45.004Z,99.90
2022-10-08T16:12:13.167Z,99.90
2022-10-08T16:14:41.270Z,1.00
2022-10-08T16:17:11.254Z,1.00
2022-10-08T16:19:39.309Z,99.90
2022-10-08T16:22:07.989Z,99.90
2022-10-08T16:24:36.120Z,99.90
2022-10-08T16:27:04.538Z,1.00
2022-10-08T16:29:32.753Z,1.00
2022-10-08T16:32:00.765Z,1.00
2022-10-08T16:34:31.710Z,1.00
2022-10-08T16:37:02.108Z,1.00
2022-10-08T16:39:30.280Z,99.90
2022-10-08T16:41:58.321Z,1.00
2022-10-08T16:44:27.248Z,31.70
2022-10-08T16:46:55.589Z,99.90
2022-10-08T16:49:26.618Z,1.00
2022-10-08T16:51:59.000Z,1.00
2022-10-08T16:54:29.114Z,1.00
2022-10-08T16:56:57.832Z,1.00
2022-10-08T16:59:29.034Z,1.00
2022-10-08T17:02:00.341Z,11.00
2022-10-08T17:04:34.855Z,27.50
2022-10-08T17:07:04.422Z,72.10
2022-10-08T17:09:32.667Z,99.90
2022-10-08T17:12:00.827Z,91.70
2022-10-08T17:14:30.345Z,99.20
2022-10-08T17:16:58.501Z,99.90
2022-10-08T17:19:26.714Z,99.90
2022-10-08T17:21:55.537Z,99.90
2022-10-08T17:24:25.113Z,99.90
2022-10-08T17:26:53.650Z,99.90
2022-10-08T17:29:21.720Z,99.90
2022-10-08T17:31:50.301Z,99.90
2022-10-08T17:34:18.389Z,99.90
2022-10-08T17:36:46.477Z,99.90
2022-10-08T17:39:15.590Z,99.90
2022-10-08T17:41:45.238Z,99.90
2022-10-08T17:44:13.966Z,99.90
2022-10-08T17:46:45.862Z,99.90
2022-10-08T17:49:15.523Z,99.90
2022-10-08T17:51:44.015Z,99.90
2022-10-08T17:54:15.407Z,99.90
2022-10-08T17:56:44.961Z,99.90
2022-10-08T17:59:16.076Z,99.90
2022-10-08T18:01:45.855Z,99.90
2022-10-08T18:04:16.791Z,99.90
2022-10-08T18:06:47.637Z,99.90
2022-10-08T18:09:20.460Z,99.90
2022-10-08T18:11:54.972Z,99.90
2022-10-08T18:14:24.286Z,99.90
2022-10-08T18:16:53.179Z,99.90
2022-10-08T18:19:21.902Z,99.90
2022-10-08T18:21:50.375Z,99.90
2022-10-08T18:24:19.731Z,99.90
2022-10-08T18:26:49.169Z,99.90
2022-10-08T18:29:17.657Z,99.90
2022-10-08T18:31:47.606Z,99.90
2022-10-08T18:34:18.484Z,99.90
2022-10-08T18:36:47.639Z,99.90
2022-10-08T18:39:18.535Z,99.90
2022-10-08T18:41:51.796Z,99.90
2022-10-08T18:44:23.852Z,99.90
2022-10-08T18:46:53.137Z,99.90
2022-10-08T18:49:29.451Z,99.90
2022-10-08T18:51:57.988Z,99.90
2022-10-08T18:54:26.116Z,99.90
2022-10-08T18:56:56.934Z,99.90
2022-10-08T18:59:26.107Z,99.90
2022-10-08T19:01:58.947Z,99.90
2022-10-08T19:04:28.567Z,99.90
2022-10-08T19:06:56.954Z,99.90
2022-10-08T19:09:25.740Z,99.90
2022-10-08T19:11:57.569Z,99.90
2022-10-08T19:14:25.893Z,99.90
2022-10-08T19:16:54.608Z,99.90
2022-10-08T19:19:27.472Z,99.90
2022-10-08T19:22:00.432Z,99.90
2022-10-08T19:24:31.593Z,99.90
2022-10-08T19:27:01.155Z,99.90
2022-10-08T19:29:33.729Z,99.90
2022-10-08T19:32:01.951Z,99.90
2022-10-08T19:34:31.161Z,99.90
2022-10-08T19:37:00.482Z,99.90
2022-10-08T19:39:31.360Z,99.90
2022-10-08T19:42:01.020Z,99.90
2022-10-08T19:44:29.130Z,99.90
2022-10-08T19:46:57.485Z,99.90
2022-10-08T19:49:28.508Z,99.90
2022-10-08T19:51:56.802Z,99.90
2022-10-08T19:54:25.707Z,99.90
2022-10-08T19:56:55.878Z,99.90
2022-10-08T19:59:25.577Z,99.90
2022-10-08T20:01:54.767Z,99.90
2022-10-08T20:04:23.863Z,99.90
2022-10-08T20:06:53.076Z,99.90
2022-10-08T20:09:21.307Z,99.90
2022-10-08T20:11:50.339Z,99.90
2022-10-08T20:14:18.560Z,99.90
2022-10-08T20:16:47.899Z,99.90
2022-10-08T20:19:20.094Z,99.90
2022-10-08T20:21:50.826Z,99.90
2022-10-08T20:24:20.294Z,99.90
2022-10-08T20:26:50.412Z,99.90
2022-10-08T20:29:21.780Z,99.90
2022-10-08T20:31:55.152Z,99.90
2022-10-08T20:34:27.147Z,99.90
2022-10-08T20:36:55.580Z,99.90
2022-10-08T20:39:23.872Z,99.90
2022-10-08T20:41:52.970Z,99.90
2022-10-08T20:44:21.683Z,99.90
2022-10-08T20:46:52.961Z,99.90
2022-10-08T20:49:21.200Z,99.90
2022-10-08T20:51:49.416Z,99.90
2022-10-08T20:54:20.613Z,99.90
2022-10-08T20:56:48.665Z,99.90
2022-10-08T20:59:19.841Z,99.90
2022-10-08T21:01:52.004Z,99.90
2022-10-08T21:04:21.244Z,99.90
2022-10-08T21:06:51.653Z,99.90
2022-10-08T21:09:22.393Z,99.90
2022-10-08T21:11:50.527Z,99.90
2022-10-08T21:14:22.454Z,99.90
2022-10-08T21:16:53.406Z,99.90
2022-10-08T21:19:23.179Z,99.90
2022-10-08T21:21:52.150Z,99.90
2022-10-08T21:24:20.493Z,99.90
2022-10-08T21:26:48.655Z,99.90
2022-10-08T21:29:16.855Z,99.90
2022-10-08T21:31:45.041Z,99.90
2022-10-08T21:34:14.841Z,99.90
2022-10-08T21:36:44.590Z,99.90
2022-10-08T21:39:17.733Z,99.90
2022-10-08T21:41:46.563Z,99.90
2022-10-08T21:44:15.389Z,99.90
2022-10-08T21:46:44.367Z,99.90
2022-10-08T21:49:17.524Z,99.90
2022-10-08T21:51:46.014Z,99.90
2022-10-08T21:54:14.865Z,99.90
2022-10-08T21:56:43.592Z,99.90
2022-10-08T21:59:15.373Z,99.90
2022-10-08T22:01:46.328Z,99.90
2022-10-08T22:04:18.927Z,99.90
2022-10-08T22:06:50.410Z,99.90
2022-10-08T22:09:22.795Z,99.90
2022-10-08T22:11:53.106Z,99.90
2022-10-08T22:14:21.933Z,99.90
2022-10-08T22:16:50.355Z,99.90
2022-10-08T22:19:20.673Z,99.90
2022-10-08T22:21:49.604Z,99.90
2022-10-08T22:24:17.823Z,99.90
2022-10-08T22:26:48.589Z,99.90
2022-10-08T22:29:16.927Z,99.90
2022-10-08T22:31:45.412Z,99.90
2022-10-08T22:34:13.802Z,99.90
2022-10-08T22:36:46.022Z,99.90
2022-10-08T22:39:14.258Z,99.90
2022-10-08T22:41:42.681Z,99.90
2022-10-08T22:44:10.687Z,99.90
2022-10-08T22:46:40.797Z,99.90
2022-10-08T22:49:12.293Z,99.90
2022-10-08T22:51:43.813Z,99.90
2022-10-08T22:54:11.822Z,99.90
2022-10-08T22:56:39.872Z,99.90
2022-10-08T22:59:08.493Z,99.90
2022-10-08T23:01:36.649Z,99.90
2022-10-08T23:04:04.712Z,99.90
2022-10-08T23:06:35.456Z,99.90
2022-10-08T23:09:08.171Z,99.90
2022-10-08T23:11:36.465Z,99.90
2022-10-08T23:14:05.900Z,99.90
2022-10-08T23:16:35.480Z,99.90
2022-10-08T23:19:07.564Z,99.90
2022-10-08T23:21:37.073Z,99.90
2022-10-08T23:24:07.087Z,99.90
2022-10-08T23:26:36.735Z,99.90
2022-10-08T23:29:05.740Z,99.90
2022-10-08T23:31:37.206Z,99.90
2022-10-08T23:34:06.485Z,99.90
2022-10-08T23:36:37.850Z,99.90
2022-10-08T23:39:09.394Z,99.90
2022-10-08T23:41:37.992Z,99.90
2022-10-08T23:44:06.474Z,99.90
2022-10-08T23:46:34.505Z,99.90
2022-10-08T23:49:02.705Z,99.90
2022-10-08T23:51:32.203Z,99.90
2022-10-08T23:54:02.081Z,99.90
2022-10-08T23:56:32.164Z,99.90
2022-10-08T23:59:00.448Z,99.90
